createdAt,value
2019-03-12T00:01:27.362Z,6.67
2019-03-12T00:03:56.765Z,6.17
2019-03-12T00:06:26.108Z,7.03
2019-03-12T00:08:55.438Z,6.70
2019-03-12T00:11:24.787Z,7.23
2019-03-12T00:13:54.290Z,6.43
2019-03-12T00:16:23.647Z,5.77
2019-03-12T00:18:52.975Z,6.73
2019-03-12T00:21:22.393Z,5.40
2019-03-12T00:23:51.790Z,6.47
2019-03-12T00:26:21.126Z,6.17
2019-03-12T00:28:50.499Z,6.80
2019-03-12T00:31:21.342Z,6.43
2019-03-12T00:33:50.748Z,6.57
2019-03-12T00:36:20.100Z,6.37
2019-03-12T00:38:49.447Z,6.50
2019-03-12T00:41:20.048Z,6.70
2019-03-12T00:43:49.875Z,7.13
2019-03-12T00:46:19.235Z,6.70
2019-03-12T00:48:48.607Z,6.60
2019-03-12T00:51:17.973Z,7.03
2019-03-12T00:53:47.371Z,7.07
2019-03-12T00:56:16.706Z,7.07
2019-03-12T00:58:46.047Z,7.27
2019-03-12T01:01:15.388Z,6.80
2019-03-12T01:03:44.771Z,6.60
2019-03-12T01:06:14.114Z,6.50
2019-03-12T01:08:43.431Z,6.80
2019-03-12T01:11:12.807Z,6.37
2019-03-12T01:13:42.140Z,6.73
2019-03-12T01:16:11.483Z,6.30
2019-03-12T01:18:40.821Z,6.37
2019-03-12T01:21:10.134Z,6.23
2019-03-12T01:23:39.466Z,5.80
2019-03-12T01:26:08.800Z,6.17
2019-03-12T01:28:38.166Z,6.03
2019-03-12T01:31:07.509Z,6.47
2019-03-12T01:33:36.935Z,5.33
2019-03-12T01:36:25.604Z,5.70
2019-03-12T01:38:54.966Z,6.20
2019-03-12T01:41:24.304Z,5.47
2019-03-12T01:43:53.734Z,7.30
2019-03-12T01:46:23.195Z,5.63
2019-03-12T01:48:52.619Z,5.07
2019-03-12T01:51:21.940Z,4.80
2019-03-12T01:53:51.310Z,5.93
2019-03-12T01:56:20.703Z,7.17
2019-03-12T01:58:50.043Z,7.50
2019-03-12T02:01:19.399Z,5.80
2019-03-12T02:03:48.806Z,6.10
2019-03-12T02:06:18.128Z,5.97
2019-03-12T02:08:47.491Z,5.20
2019-03-12T02:11:16.810Z,5.33
2019-03-12T02:13:46.168Z,5.40
2019-03-12T02:16:15.497Z,5.83
2019-03-12T02:18:44.826Z,6.53
2019-03-12T02:21:14.142Z,5.90
2019-03-12T02:23:43.497Z,5.53
2019-03-12T02:26:12.826Z,5.07
2019-03-12T02:28:42.175Z,5.47
2019-03-12T02:31:11.495Z,5.30
2019-03-12T02:33:40.824Z,5.80
2019-03-12T02:36:10.141Z,5.60
2019-03-12T02:38:39.494Z,5.40
2019-03-12T02:41:08.823Z,4.57
2019-03-12T02:43:38.158Z,4.93
2019-03-12T02:46:07.476Z,5.63
2019-03-12T02:48:36.814Z,5.43
2019-03-12T02:51:06.139Z,5.67
2019-03-12T02:53:35.478Z,5.60
2019-03-12T02:56:04.806Z,5.40
2019-03-12T02:58:34.171Z,5.30
2019-03-12T03:01:03.546Z,5.27
2019-03-12T03:03:32.894Z,4.93
2019-03-12T03:06:03.856Z,4.47
2019-03-12T03:08:34.756Z,5.63
2019-03-12T03:11:04.170Z,5.00
2019-03-12T03:13:33.567Z,5.43
2019-03-12T03:16:02.889Z,5.43
2019-03-12T03:18:33.306Z,5.60
2019-03-12T03:21:02.915Z,5.90
2019-03-12T03:23:32.259Z,6.00
2019-03-12T03:26:01.600Z,6.13
2019-03-12T03:28:31.007Z,6.83
2019-03-12T03:31:00.314Z,5.80
2019-03-12T03:33:29.711Z,7.83
2019-03-12T03:35:59.121Z,6.60
2019-03-12T03:38:28.517Z,7.23
2019-03-12T03:40:58.061Z,6.97
2019-03-12T03:43:27.422Z,8.10
2019-03-12T03:45:56.914Z,6.83
2019-03-12T03:48:26.253Z,6.70
2019-03-12T03:50:55.590Z,7.07
2019-03-12T03:53:24.980Z,6.87
2019-03-12T03:55:57.327Z,6.17
2019-03-12T03:58:26.679Z,7.07
2019-03-12T04:00:57.509Z,6.93
2019-03-12T04:03:26.936Z,7.30
2019-03-12T04:05:56.304Z,6.33
2019-03-12T04:08:25.704Z,6.90
2019-03-12T04:10:55.024Z,6.27
2019-03-12T04:13:24.366Z,8.40
2019-03-12T04:15:53.751Z,6.67
2019-03-12T04:18:23.127Z,8.17
2019-03-12T04:20:52.485Z,8.43
2019-03-12T04:23:21.815Z,9.20
2019-03-12T04:25:51.135Z,8.87
2019-03-12T04:28:20.495Z,8.97
2019-03-12T04:30:49.918Z,8.30
2019-03-12T04:33:52.947Z,9.30
2019-03-12T04:36:22.347Z,8.73
2019-03-12T04:38:51.767Z,10.27
2019-03-12T04:41:21.162Z,11.10
2019-03-12T04:43:50.619Z,10.17
2019-03-12T04:46:20.023Z,11.27
2019-03-12T04:48:49.372Z,13.50
2019-03-12T04:51:18.696Z,12.27
2019-03-12T04:53:48.102Z,14.27
2019-03-12T04:56:17.429Z,14.17
2019-03-12T04:58:46.777Z,15.33
2019-03-12T05:01:16.112Z,16.57
2019-03-12T05:03:45.438Z,15.50
2019-03-12T05:06:14.791Z,17.73
2019-03-12T05:08:45.170Z,18.43
2019-03-12T05:11:14.540Z,20.33
2019-03-12T05:13:46.952Z,21.07
2019-03-12T05:16:16.307Z,20.60
2019-03-12T05:18:45.704Z,20.27
2019-03-12T05:21:16.189Z,20.83
2019-03-12T05:23:45.613Z,21.77
2019-03-12T05:26:14.944Z,20.20
2019-03-12T05:28:44.365Z,18.80
2019-03-12T05:31:13.778Z,18.13
2019-03-12T05:33:43.262Z,18.53
2019-03-12T05:36:12.629Z,18.77
2019-03-12T05:38:42.098Z,17.20
2019-03-12T05:41:12.387Z,15.73
2019-03-12T05:43:42.118Z,15.03
2019-03-12T05:46:11.776Z,15.17
2019-03-12T05:48:45.384Z,14.53
2019-03-12T05:51:14.781Z,14.87
2019-03-12T05:54:07.750Z,13.77
2019-03-12T05:56:37.114Z,12.67
2019-03-12T05:59:06.471Z,13.63
2019-03-12T06:01:35.837Z,12.80
2019-03-12T06:04:05.202Z,12.43
2019-03-12T06:06:34.561Z,11.53
2019-03-12T06:09:05.983Z,12.40
2019-03-12T06:11:37.017Z,11.43
2019-03-12T06:14:06.471Z,10.90
2019-03-12T06:16:35.882Z,10.70
2019-03-12T06:19:05.298Z,10.73
2019-03-12T06:21:34.638Z,10.50
2019-03-12T06:24:03.973Z,10.77
2019-03-12T06:26:33.531Z,11.00
2019-03-12T06:29:02.982Z,9.93
2019-03-12T06:31:43.834Z,9.83
2019-03-12T06:34:14.841Z,9.50
2019-03-12T06:36:45.843Z,10.07
2019-03-12T06:39:20.211Z,8.93
2019-03-12T06:41:54.030Z,8.60
2019-03-12T06:44:42.498Z,8.13
2019-03-12T06:47:22.442Z,9.30
2019-03-12T06:50:09.610Z,8.20
2019-03-12T06:52:58.953Z,8.70
2019-03-12T06:55:30.005Z,7.97
2019-03-12T06:58:19.342Z,7.87
2019-03-12T07:00:50.393Z,8.23
2019-03-12T07:03:37.630Z,7.37
2019-03-12T07:06:10.830Z,7.27
2019-03-12T07:09:13.359Z,8.00
2019-03-12T07:11:44.410Z,7.67
2019-03-12T07:14:15.566Z,7.70
2019-03-12T07:19:51.025Z,7.57
2019-03-12T07:22:38.442Z,7.20
2019-03-12T07:25:13.383Z,7.50
2019-03-12T07:27:50.335Z,7.77
2019-03-12T07:30:24.070Z,6.60
2019-03-12T07:33:08.208Z,7.23
2019-03-12T07:35:39.267Z,7.67
2019-03-12T07:41:22.666Z,9.23
2019-03-12T07:43:44.528Z,8.53
2019-03-12T07:46:32.190Z,7.30
2019-03-12T07:49:12.033Z,7.60
2019-03-12T07:51:43.106Z,7.33
2019-03-12T07:54:29.789Z,7.00
2019-03-12T07:57:13.379Z,6.10
2019-03-12T07:59:48.870Z,6.80
2019-03-12T08:02:19.913Z,6.60
2019-03-12T08:04:50.960Z,6.90
2019-03-12T08:07:22.815Z,7.37
2019-03-12T08:09:54.608Z,7.10
2019-03-12T08:12:28.621Z,7.60
2019-03-12T08:15:23.167Z,7.10
2019-03-12T08:17:58.247Z,7.60
2019-03-12T08:20:29.334Z,7.17
2019-03-12T08:26:16.627Z,7.73
2019-03-12T08:28:51.601Z,8.00
2019-03-12T08:31:29.103Z,7.73
2019-03-12T08:34:01.500Z,7.17
2019-03-12T08:36:35.211Z,6.97
2019-03-12T08:39:20.192Z,7.60
2019-03-12T08:41:54.945Z,6.73
2019-03-12T08:44:27.952Z,5.43
2019-03-12T08:46:58.950Z,5.80
2019-03-12T08:49:49.011Z,6.23
2019-03-12T08:52:20.652Z,5.43
2019-03-12T08:54:55.945Z,5.20
2019-03-12T08:57:28.081Z,6.07
2019-03-12T09:00:02.934Z,5.53
2019-03-12T09:02:46.332Z,5.53
2019-03-12T09:05:17.859Z,5.20
2019-03-12T09:07:50.119Z,4.93
2019-03-12T09:13:16.644Z,4.50
2019-03-12T09:15:57.865Z,4.63
2019-03-12T09:18:28.949Z,4.90
2019-03-12T09:21:02.594Z,5.33
2019-03-12T09:23:50.132Z,4.73
2019-03-12T09:26:27.644Z,4.27
2019-03-12T09:29:16.333Z,4.37
2019-03-12T09:31:50.856Z,4.50
2019-03-12T09:34:30.494Z,3.90
2019-03-12T09:37:04.851Z,4.20
2019-03-12T09:39:42.659Z,4.27
2019-03-12T09:42:29.403Z,3.93
2019-03-12T09:45:06.509Z,3.67
2019-03-12T09:47:43.523Z,4.33
2019-03-12T09:53:23.009Z,3.93
2019-03-12T09:56:05.913Z,3.80
2019-03-12T09:58:52.358Z,4.50
2019-03-12T10:01:24.144Z,3.83
2019-03-12T10:04:01.272Z,3.10
2019-03-12T10:06:34.358Z,3.63
2019-03-12T10:09:24.127Z,4.83
2019-03-12T10:12:06.681Z,3.60
2019-03-12T10:14:43.642Z,4.43
2019-03-12T10:17:20.724Z,4.00
2019-03-12T10:19:58.737Z,3.77
2019-03-12T10:22:39.610Z,2.93
2019-03-12T10:25:27.061Z,3.43
2019-03-12T10:28:02.595Z,4.03
2019-03-12T10:30:39.357Z,4.00
2019-03-12T10:33:25.196Z,3.17
2019-03-12T10:35:59.003Z,3.27
2019-03-12T10:39:02.746Z,3.93
2019-03-12T10:41:36.417Z,3.97
2019-03-12T10:44:08.025Z,3.63
2019-03-12T10:46:39.105Z,3.00
2019-03-12T10:49:08.938Z,2.80
2019-03-12T10:51:38.904Z,2.67
2019-03-12T10:54:09.047Z,3.43
2019-03-12T10:56:39.532Z,2.83
2019-03-12T10:59:10.751Z,3.07
2019-03-12T11:01:43.425Z,3.20
2019-03-12T11:04:14.148Z,3.07
2019-03-12T11:06:43.710Z,3.23
2019-03-12T11:09:13.084Z,2.93
2019-03-12T11:11:42.572Z,3.10
2019-03-12T11:14:11.985Z,2.80
2019-03-12T11:16:41.538Z,3.03
2019-03-12T11:19:11.718Z,3.30
2019-03-12T11:21:41.062Z,3.00
2019-03-12T11:24:11.149Z,3.20
2019-03-12T11:26:40.731Z,3.17
2019-03-12T11:29:10.135Z,3.93
2019-03-12T11:31:40.763Z,2.93
2019-03-12T11:34:10.192Z,3.13
2019-03-12T11:36:42.790Z,3.57
2019-03-12T11:39:10.833Z,2.90
2019-03-12T11:41:41.106Z,3.40
2019-03-12T11:44:10.756Z,2.90
2019-03-12T11:46:44.104Z,3.30
2019-03-12T11:49:12.525Z,3.03
2019-03-12T11:51:42.552Z,2.60
2019-03-12T11:54:12.865Z,2.93
2019-03-12T11:56:42.388Z,3.03
2019-03-12T11:59:12.164Z,3.07
2019-03-12T12:01:42.013Z,3.03
2019-03-12T12:04:11.436Z,2.97
2019-03-12T12:06:42.998Z,3.43
2019-03-12T12:09:13.444Z,3.77
2019-03-12T12:11:44.436Z,3.57
2019-03-12T12:14:15.406Z,3.47
2019-03-12T12:16:44.911Z,3.23
2019-03-12T12:19:14.267Z,8.73
2019-03-12T12:21:43.688Z,25.77
2019-03-12T12:24:13.138Z,3.93
2019-03-12T12:26:43.995Z,3.10
2019-03-12T12:29:28.727Z,3.47
2019-03-12T12:31:58.272Z,2.50
2019-03-12T12:34:29.045Z,2.70
2019-03-12T12:36:59.839Z,3.10
2019-03-12T12:39:30.243Z,8.80
2019-03-12T12:41:59.818Z,4.03
2019-03-12T12:44:30.180Z,4.33
2019-03-12T12:46:59.696Z,3.97
2019-03-12T12:49:29.323Z,3.30
2019-03-12T12:51:58.915Z,4.57
2019-03-12T12:54:35.085Z,3.00
2019-03-12T12:57:06.247Z,3.77
2019-03-12T12:59:35.642Z,3.70
2019-03-12T13:02:05.294Z,3.40
2019-03-12T13:04:35.731Z,3.50
2019-03-12T13:07:08.367Z,3.80
2019-03-12T13:09:38.098Z,2.67
2019-03-12T13:12:07.735Z,3.17
2019-03-12T13:14:41.685Z,3.80
2019-03-12T13:17:09.175Z,3.20
2019-03-12T13:19:39.708Z,2.93
2019-03-12T13:22:09.583Z,3.10
2019-03-12T13:24:39.136Z,2.23
2019-03-12T13:27:10.338Z,2.70
2019-03-12T13:29:43.577Z,2.43
2019-03-12T13:32:14.003Z,2.83
2019-03-12T13:34:44.223Z,2.80
2019-03-12T13:37:14.150Z,2.50
2019-03-12T13:39:43.833Z,3.43
2019-03-12T13:42:13.248Z,3.03
2019-03-12T13:44:45.822Z,3.10
2019-03-12T13:47:15.452Z,2.70
2019-03-12T13:49:44.851Z,2.47
2019-03-12T13:52:14.287Z,2.90
2019-03-12T13:54:44.615Z,3.00
2019-03-12T13:57:14.311Z,3.73
2019-03-12T13:59:43.801Z,2.83
2019-03-12T14:02:16.732Z,3.57
2019-03-12T14:04:46.128Z,3.87
2019-03-12T14:07:15.683Z,2.83
2019-03-12T14:09:46.334Z,2.77
2019-03-12T14:12:15.968Z,2.47
2019-03-12T14:14:46.695Z,2.90
2019-03-12T14:17:16.287Z,2.13
2019-03-12T14:19:45.830Z,2.53
2019-03-12T14:22:20.011Z,4.13
2019-03-12T14:24:51.623Z,3.00
2019-03-12T14:27:23.532Z,3.13
2019-03-12T14:29:53.491Z,2.20
2019-03-12T14:32:26.835Z,2.10
2019-03-12T14:34:56.551Z,2.67
2019-03-12T14:37:26.128Z,2.27
2019-03-12T14:39:55.602Z,2.30
2019-03-12T14:42:25.872Z,2.33
2019-03-12T14:44:55.318Z,3.00
2019-03-12T14:47:25.663Z,2.27
2019-03-12T14:49:55.159Z,2.33
2019-03-12T14:52:26.014Z,2.60
2019-03-12T14:54:55.853Z,2.50
2019-03-12T14:57:25.381Z,2.70
2019-03-12T14:59:54.887Z,2.60
2019-03-12T15:02:24.629Z,3.27
2019-03-12T15:04:54.022Z,2.47
2019-03-12T15:07:24.122Z,1.80
2019-03-12T15:09:53.611Z,2.23
2019-03-12T15:12:26.903Z,2.53
2019-03-12T15:14:56.732Z,2.50
2019-03-12T15:17:28.337Z,2.23
2019-03-12T15:19:57.758Z,2.70
2019-03-12T15:22:27.266Z,2.57
2019-03-12T15:24:57.442Z,2.50
2019-03-12T15:27:26.889Z,3.10
2019-03-12T15:29:57.306Z,2.33
2019-03-12T15:32:27.504Z,2.47
2019-03-12T15:34:57.171Z,2.13
2019-03-12T15:37:26.659Z,2.20
2019-03-12T15:39:57.410Z,2.83
2019-03-12T15:42:26.931Z,2.73
2019-03-12T15:44:56.860Z,2.47
2019-03-12T15:47:27.298Z,2.40
2019-03-12T15:50:00.503Z,3.37
2019-03-12T15:52:35.723Z,2.43
2019-03-12T15:55:06.379Z,2.37
2019-03-12T15:57:35.820Z,2.70
2019-03-12T16:00:13.386Z,2.63
2019-03-12T16:02:43.017Z,2.40
2019-03-12T16:05:12.732Z,2.10
2019-03-12T16:07:43.342Z,2.63
2019-03-12T16:10:19.917Z,2.53
2019-03-12T16:12:53.550Z,2.00
2019-03-12T16:15:23.091Z,2.40
2019-03-12T16:17:56.498Z,2.20
2019-03-12T16:20:26.389Z,2.23
2019-03-12T16:22:55.909Z,2.60
2019-03-12T16:25:25.336Z,2.57
2019-03-12T16:27:54.969Z,2.30
2019-03-12T16:30:24.648Z,2.37
2019-03-12T16:32:54.366Z,2.80
2019-03-12T16:35:27.270Z,2.70
2019-03-12T16:37:56.785Z,2.50
2019-03-12T16:40:26.749Z,2.27
2019-03-12T16:42:56.583Z,2.20
2019-03-12T16:45:26.515Z,2.73
2019-03-12T16:47:57.169Z,2.40
2019-03-12T16:50:26.502Z,2.63
2019-03-12T16:52:56.015Z,2.40
2019-03-12T16:55:27.275Z,3.07
2019-03-12T16:57:57.656Z,2.83
2019-03-12T17:00:27.257Z,3.17
2019-03-12T17:02:58.305Z,2.30
2019-03-12T17:05:29.860Z,2.60
2019-03-12T17:08:00.038Z,2.73
2019-03-12T17:10:29.670Z,2.70
2019-03-12T17:13:00.407Z,2.80
2019-03-12T17:15:31.361Z,2.73
2019-03-12T17:18:00.918Z,2.20
2019-03-12T17:20:33.122Z,2.17
2019-03-12T17:32:11.298Z,3.57
2019-03-12T17:34:48.334Z,2.40
2019-03-12T17:37:41.674Z,3.27
2019-03-12T17:40:19.379Z,2.73
2019-03-12T17:43:01.808Z,2.50
2019-03-12T17:45:34.397Z,2.73
2019-03-12T17:48:05.120Z,2.87
2019-03-12T17:50:37.606Z,2.30
2019-03-12T17:53:14.802Z,5.13
2019-03-12T17:55:52.577Z,2.77
2019-03-12T17:58:25.406Z,2.57
2019-03-12T18:00:58.448Z,10.23
2019-03-12T18:03:34.799Z,2.80
2019-03-12T18:06:07.394Z,6.37
2019-03-12T18:08:41.974Z,3.03
2019-03-12T18:11:14.910Z,2.40
2019-03-12T18:13:49.887Z,7.00
2019-03-12T18:16:25.932Z,2.57
2019-03-12T18:19:02.411Z,2.43
2019-03-12T18:21:34.749Z,3.50
2019-03-12T18:24:05.302Z,4.50
2019-03-12T18:26:37.600Z,6.20
2019-03-12T18:29:07.342Z,3.63
2019-03-12T18:31:39.436Z,3.07
2019-03-12T18:34:10.992Z,2.30
2019-03-12T18:36:41.795Z,3.50
2019-03-12T18:39:12.407Z,2.07
2019-03-12T18:41:42.578Z,2.40
2019-03-12T18:44:12.898Z,2.57
2019-03-12T18:46:43.340Z,3.20
2019-03-12T18:49:13.529Z,2.87
2019-03-12T18:51:47.876Z,3.00
2019-03-12T18:54:21.258Z,2.70
2019-03-12T18:56:52.887Z,2.40
2019-03-12T18:59:23.716Z,2.47
2019-03-12T19:01:53.716Z,3.93
2019-03-12T19:04:23.672Z,3.00
2019-03-12T19:06:53.444Z,2.63
2019-03-12T19:09:26.208Z,2.73
2019-03-12T19:11:58.580Z,2.70
2019-03-12T19:14:29.544Z,2.40
2019-03-12T19:16:59.981Z,2.03
2019-03-12T19:19:32.107Z,2.40
2019-03-12T19:22:02.307Z,2.80
2019-03-12T19:24:31.938Z,2.43
2019-03-12T19:27:01.906Z,2.20
2019-03-12T19:29:31.361Z,2.27
2019-03-12T19:32:02.699Z,2.30
2019-03-12T19:34:33.156Z,2.43
2019-03-12T19:37:08.168Z,2.40
2019-03-12T19:39:38.048Z,2.40
2019-03-12T19:42:11.082Z,2.30
2019-03-12T19:44:40.576Z,2.37
2019-03-12T19:47:13.867Z,2.50
2019-03-12T19:49:43.591Z,2.23
2019-03-12T19:52:13.668Z,2.27
2019-03-12T19:54:43.489Z,2.63
2019-03-12T19:57:15.393Z,2.37
2019-03-12T19:59:47.930Z,2.40
2019-03-12T20:02:19.776Z,2.63
2019-03-12T20:04:49.398Z,2.07
2019-03-12T20:07:19.666Z,2.10
2019-03-12T20:10:01.026Z,2.47
2019-03-12T20:12:49.836Z,2.23
2019-03-12T20:15:40.411Z,2.20
2019-03-12T20:18:19.235Z,2.90
2019-03-12T20:20:59.270Z,2.00
2019-03-12T20:24:02.850Z,1.90
2019-03-12T20:27:06.358Z,2.30
2019-03-12T20:30:12.119Z,2.53
2019-03-12T20:32:52.981Z,2.00
2019-03-12T20:35:43.399Z,2.10
2019-03-12T20:38:54.978Z,2.33
2019-03-12T20:41:54.317Z,2.17
2019-03-12T20:44:44.838Z,2.37
2019-03-12T20:47:29.546Z,1.83
2019-03-12T20:50:25.983Z,3.43
2019-03-12T20:53:18.013Z,2.03
2019-03-12T20:56:24.571Z,3.07
2019-03-12T20:58:57.696Z,1.93
2019-03-12T21:01:48.141Z,2.40
2019-03-12T21:04:38.258Z,2.23
2019-03-12T21:07:23.197Z,2.93
2019-03-12T21:10:12.539Z,1.83
2019-03-12T21:13:13.753Z,1.87
2019-03-12T21:16:15.851Z,2.10
2019-03-12T21:18:57.534Z,2.13
2019-03-12T21:21:38.988Z,1.97
2019-03-12T21:24:26.650Z,1.63
2019-03-12T21:27:23.830Z,1.70
2019-03-12T21:29:54.349Z,1.97
2019-03-12T21:32:25.338Z,1.97
2019-03-12T21:34:57.089Z,2.17
2019-03-12T21:37:27.953Z,2.13
2019-03-12T21:39:58.427Z,2.40
2019-03-12T21:42:30.395Z,2.43
2019-03-12T21:45:00.480Z,1.87
2019-03-12T21:47:30.226Z,2.27
2019-03-12T21:50:00.459Z,2.10
2019-03-12T21:52:30.446Z,2.00
2019-03-12T21:55:00.461Z,2.30
2019-03-12T21:57:30.822Z,2.17
2019-03-12T22:00:00.438Z,2.20
2019-03-12T22:02:31.766Z,2.00
2019-03-12T22:05:01.300Z,2.40
2019-03-12T22:07:32.086Z,2.03
2019-03-12T22:10:01.978Z,2.20
2019-03-12T22:12:33.024Z,2.40
2019-03-12T22:15:03.139Z,2.10
2019-03-12T22:17:34.217Z,2.63
2019-03-12T22:20:06.982Z,2.00
2019-03-12T22:22:38.699Z,2.10
2019-03-12T22:25:11.399Z,2.23
2019-03-12T22:27:41.160Z,2.57
2019-03-12T22:30:20.337Z,2.23
2019-03-12T22:32:49.792Z,1.77
2019-03-12T22:35:20.292Z,2.33
2019-03-12T22:37:49.978Z,2.40
2019-03-12T22:40:19.808Z,2.40
2019-03-12T22:42:50.852Z,2.43
2019-03-12T22:45:20.247Z,2.23
2019-03-12T22:47:49.648Z,2.77
2019-03-12T22:50:21.190Z,2.13
2019-03-12T22:52:50.575Z,2.63
2019-03-12T22:55:20.114Z,2.40
2019-03-12T22:57:50.030Z,2.30
2019-03-12T23:00:38.223Z,1.67
2019-03-12T23:03:25.735Z,1.70
2019-03-12T23:06:13.547Z,1.30
2019-03-12T23:09:01.060Z,1.50
2019-03-12T23:11:33.608Z,1.67
2019-03-12T23:14:04.835Z,1.80
2019-03-12T23:16:35.827Z,1.77
2019-03-12T23:19:06.926Z,1.50
2019-03-12T23:21:38.528Z,1.60
2019-03-12T23:24:09.731Z,1.87
2019-03-12T23:26:40.418Z,2.00
2019-03-12T23:29:10.879Z,1.80
2019-03-12T23:31:40.725Z,1.83
2019-03-12T23:34:11.779Z,1.90
2019-03-12T23:36:42.146Z,2.00
2019-03-12T23:39:12.140Z,2.20
2019-03-12T23:41:42.602Z,2.30
2019-03-12T23:44:12.202Z,2.17
2019-03-12T23:46:42.659Z,2.70
2019-03-12T23:49:12.874Z,2.50
2019-03-12T23:51:44.453Z,2.20
2019-03-12T23:54:14.674Z,2.60
2019-03-12T23:56:44.157Z,2.53
2019-03-12T23:59:14.636Z,2.93
